createdAt,value
2019-04-05T06:59:06.123Z,6.50
2019-04-05T07:01:34.063Z,6.70
2019-04-05T07:04:01.667Z,7.10
2019-04-05T07:06:29.293Z,7.30
2019-04-05T07:08:56.887Z,7.40
2019-04-05T07:11:24.588Z,7.40
2019-04-05T07:13:52.207Z,7.70
2019-04-05T07:16:19.825Z,7.80
2019-04-05T07:18:47.431Z,7.80
2019-04-05T07:21:17.343Z,8.00
2019-04-05T07:23:45.033Z,8.10
2019-04-05T07:26:12.643Z,8.00
2019-04-05T07:28:40.342Z,8.20
2019-04-05T07:31:08.298Z,8.40
2019-04-05T07:33:35.878Z,8.50
2019-04-05T07:36:03.717Z,8.60
2019-04-05T07:38:31.563Z,8.70
2019-04-05T07:40:59.251Z,9.00
2019-04-05T07:43:26.837Z,9.20
2019-04-05T07:45:54.428Z,9.20
2019-04-05T07:48:22.065Z,9.30
2019-04-05T07:50:49.969Z,9.80
2019-04-05T07:53:17.529Z,10.00
2019-04-05T07:55:45.738Z,10.00
2019-04-05T07:58:14.492Z,10.50
2019-04-05T08:00:47.459Z,10.30
2019-04-05T08:03:15.202Z,10.10
2019-04-05T08:05:43.393Z,10.10
2019-04-05T08:08:16.163Z,10.30
2019-04-05T08:10:45.125Z,10.20
2019-04-05T08:13:14.592Z,10.20
2019-04-05T08:15:42.645Z,10.50
2019-04-05T08:18:10.239Z,10.50
2019-04-05T08:20:38.425Z,10.80
2019-04-05T08:23:07.402Z,10.80
2019-04-05T08:25:35.035Z,11.10
2019-04-05T08:28:02.904Z,11.20
2019-04-05T08:30:30.533Z,11.40
2019-04-05T08:32:58.444Z,11.20
2019-04-05T08:35:26.083Z,11.10
2019-04-05T08:37:53.751Z,11.00
2019-04-05T08:40:21.512Z,11.10
2019-04-05T08:42:49.171Z,10.90
2019-04-05T08:45:16.813Z,11.00
2019-04-05T08:47:44.427Z,11.40
2019-04-05T08:50:12.119Z,11.20
2019-04-05T08:52:39.795Z,11.50
2019-04-05T08:55:07.399Z,11.40
2019-04-05T08:57:36.229Z,11.60
2019-04-05T09:00:04.676Z,11.70
2019-04-05T09:02:33.386Z,12.10
2019-04-05T09:05:01.210Z,12.20
2019-04-05T09:07:28.891Z,12.10
2019-04-05T09:09:56.522Z,12.20
2019-04-05T09:12:24.158Z,11.80
2019-04-05T09:14:52.050Z,12.10
2019-04-05T09:17:19.842Z,12.70
2019-04-05T09:19:48.002Z,12.80
2019-04-05T09:22:15.657Z,12.40
2019-04-05T09:24:43.620Z,12.50
2019-04-05T09:27:12.463Z,12.10
2019-04-05T09:29:40.097Z,12.50
2019-04-05T09:32:07.803Z,13.20
2019-04-05T09:34:35.398Z,13.30
2019-04-05T09:37:02.926Z,13.40
2019-04-05T09:39:31.284Z,13.20
2019-04-05T09:41:59.184Z,13.40
2019-04-05T09:44:27.033Z,13.10
2019-04-05T09:46:55.496Z,13.80
2019-04-05T09:49:35.793Z,13.20
2019-04-05T09:51:52.699Z,12.80
2019-04-05T09:54:20.661Z,12.70
2019-04-05T09:56:48.733Z,13.10
2019-04-05T09:59:16.538Z,13.10
2019-04-05T10:01:44.147Z,14.10
2019-04-05T10:04:11.931Z,13.70
2019-04-05T10:06:39.833Z,13.60
2019-04-05T10:09:07.787Z,13.40
2019-04-05T10:11:35.420Z,13.20
2019-04-05T10:14:03.872Z,13.20
2019-04-05T10:16:31.919Z,13.30
2019-04-05T10:18:59.595Z,13.60
2019-04-05T10:21:27.745Z,13.20
2019-04-05T10:23:55.392Z,12.90
2019-04-05T10:26:25.163Z,12.70
2019-04-05T10:28:53.001Z,13.10
2019-04-05T10:31:20.827Z,13.20
2019-04-05T10:33:48.544Z,13.30
2019-04-05T10:36:16.420Z,13.10
2019-04-05T10:38:44.254Z,13.60
2019-04-05T10:46:10.128Z,14.30
2019-04-05T10:48:37.749Z,13.90
2019-04-05T10:51:05.675Z,13.60
2019-04-05T10:53:33.559Z,13.60
2019-04-05T10:56:01.809Z,13.90
2019-04-05T10:58:29.466Z,13.80
2019-04-05T11:08:21.447Z,14.30
